createdAt,value
2022-10-02T00:01:28.368Z,96949.97
2022-10-02T00:03:59.248Z,96946.38
2022-10-02T00:06:39.736Z,96956.84
2022-10-02T00:09:12.102Z,96956.84
2022-10-02T00:11:44.646Z,96967.13
2022-10-02T00:14:16.410Z,96968.94
2022-10-02T00:16:48.174Z,96963.69
2022-10-02T00:19:19.527Z,96961.25
2022-10-02T00:22:00.177Z,96949.16
2022-10-02T00:24:33.896Z,96952.59
2022-10-02T00:27:06.291Z,96952.97
2022-10-02T00:29:43.817Z,96954.94
2022-10-02T00:32:24.816Z,96955.94
2022-10-02T00:35:35.813Z,96958.38
2022-10-02T00:38:12.462Z,96962.00
2022-10-02T00:41:05.654Z,96965.44
2022-10-02T00:43:44.151Z,96970.69
2022-10-02T00:46:32.310Z,96974.91
2022-10-02T00:49:09.672Z,96976.53
2022-10-02T00:51:49.007Z,96971.28
2022-10-02T00:54:31.160Z,96983.38
2022-10-02T00:57:10.848Z,96992.88
2022-10-02T00:59:54.384Z,97000.75
2022-10-02T01:02:45.182Z,97005.00
2022-10-02T01:05:13.818Z,97000.75
2022-10-02T01:07:44.362Z,96994.69
2022-10-02T01:10:14.838Z,96988.63
2022-10-02T01:12:43.178Z,96979.97
2022-10-02T01:15:14.555Z,96984.22
2022-10-02T01:17:43.142Z,96990.25
2022-10-02T01:20:16.465Z,96980.63
2022-10-02T01:22:53.488Z,96979.78
2022-10-02T01:25:22.373Z,96986.84
2022-10-02T01:27:51.361Z,96986.84
2022-10-02T01:30:21.431Z,96974.53
2022-10-02T01:32:52.241Z,96979.78
2022-10-02T01:35:22.132Z,96983.22
2022-10-02T01:37:51.910Z,96983.22
2022-10-02T01:40:28.731Z,96981.41
2022-10-02T01:42:58.820Z,96985.84
2022-10-02T01:45:37.177Z,96992.88
2022-10-02T01:48:14.605Z,96990.25
2022-10-02T01:50:54.161Z,96991.25
2022-10-02T01:53:29.730Z,96987.00
2022-10-02T01:56:07.875Z,96976.72
2022-10-02T01:58:45.739Z,96984.56
2022-10-02T02:01:23.453Z,96978.53
2022-10-02T02:04:01.933Z,96999.50
2022-10-02T02:06:34.133Z,96995.22
2022-10-02T02:09:09.101Z,96965.63
2022-10-02T02:11:45.692Z,96983.31
2022-10-02T02:14:17.180Z,96995.44
2022-10-02T02:16:46.684Z,97002.47
2022-10-02T02:19:20.115Z,96995.44
2022-10-02T02:21:51.847Z,96991.81
2022-10-02T02:24:24.630Z,96991.81
2022-10-02T02:26:57.666Z,97000.47
2022-10-02T02:29:27.489Z,96999.50
2022-10-02T02:31:57.947Z,96995.06
2022-10-02T02:34:31.439Z,96993.44
2022-10-02T02:37:05.383Z,97016.00
2022-10-02T03:44:26.892Z,96995.31
2022-10-02T05:46:45.108Z,97014.97
2022-10-02T05:49:20.513Z,97020.22
2022-10-02T06:21:53.699Z,97050.69
2022-10-02T06:24:31.611Z,97042.84
2022-10-02T06:27:03.335Z,97050.50
2022-10-02T07:37:03.950Z,97004.66
2022-10-02T07:40:02.014Z,97002.84
2022-10-02T07:45:44.799Z,97002.22
2022-10-02T08:10:07.079Z,96988.00
2022-10-02T08:12:41.319Z,96987.19
2022-10-02T08:15:16.096Z,96984.75
2022-10-02T08:17:49.884Z,96984.75
2022-10-02T08:20:29.159Z,96971.88
2022-10-02T08:23:02.010Z,96978.91
2022-10-02T08:25:37.296Z,96971.03
2022-10-02T08:28:11.368Z,96971.03
2022-10-02T08:30:39.112Z,96972.06
2022-10-02T08:33:15.001Z,96987.78
2022-10-02T08:53:33.187Z,96951.31
2022-10-02T08:56:17.715Z,96964.63
2022-10-02T08:59:22.821Z,96950.06
2022-10-02T09:02:28.047Z,96947.84
2022-10-02T09:09:20.344Z,96947.84
2022-10-02T09:12:26.147Z,96948.84
2022-10-02T09:15:00.435Z,96933.50
2022-10-02T09:18:05.631Z,96940.38
2022-10-02T09:20:49.643Z,96940.16
2022-10-02T09:24:03.579Z,96928.69
2022-10-02T09:31:08.818Z,96899.13
2022-10-02T09:38:27.246Z,96905.78
2022-10-02T09:41:34.662Z,96896.91
2022-10-02T09:48:23.550Z,96883.88
2022-10-02T09:58:00.911Z,96905.91
2022-10-02T10:01:03.732Z,96908.72
2022-10-02T10:04:09.337Z,96906.69
2022-10-02T10:06:59.419Z,96896.00
2022-10-02T10:13:42.220Z,96908.88
2022-10-02T10:16:58.437Z,96905.09
2022-10-02T10:20:11.503Z,96916.38
2022-10-02T10:23:07.009Z,96918.59
2022-10-02T10:26:00.445Z,96910.31
2022-10-02T10:29:31.376Z,96916.56
2022-10-02T10:32:51.697Z,96921.81
2022-10-02T10:36:46.691Z,96926.06
2022-10-02T10:46:18.380Z,96931.34
2022-10-02T10:49:36.218Z,96923.25
2022-10-02T10:52:50.578Z,96931.75
2022-10-02T11:03:29.531Z,96937.44
2022-10-02T11:10:10.836Z,96928.19
2022-10-02T11:17:07.743Z,96916.31
2022-10-02T11:20:17.426Z,96911.47
2022-10-02T11:23:34.719Z,96912.09
2022-10-02T11:27:08.572Z,96924.00
2022-10-02T11:37:54.086Z,96946.63
2022-10-02T11:40:54.848Z,96930.72
2022-10-02T11:43:55.013Z,96927.06
2022-10-02T11:46:40.900Z,96931.94
2022-10-02T11:49:55.256Z,96941.22
2022-10-02T11:52:55.921Z,96949.28
2022-10-02T11:55:49.696Z,96938.78
2022-10-02T11:59:02.340Z,96933.97
2022-10-02T12:01:55.751Z,96937.00
2022-10-02T12:04:53.645Z,96938.03
2022-10-02T12:07:38.927Z,96940.47
2022-10-02T12:10:25.866Z,96946.50
2022-10-02T12:13:16.252Z,96938.22
2022-10-02T12:15:56.664Z,96934.41
2022-10-02T12:18:42.178Z,96929.56
2022-10-02T12:21:43.453Z,96921.50
2022-10-02T12:24:37.108Z,96931.00
2022-10-02T12:27:30.975Z,96930.19
2022-10-02T12:30:11.315Z,96922.50
2022-10-02T12:33:10.506Z,96935.25
2022-10-02T12:35:57.889Z,96936.66
2022-10-02T12:38:40.925Z,96925.75
2022-10-02T12:41:23.191Z,96940.09
2022-10-02T12:44:41.964Z,96934.66
2022-10-02T12:47:32.480Z,96931.44
2022-10-02T12:51:05.784Z,96923.38
2022-10-02T12:54:08.151Z,96924.56
2022-10-02T12:57:03.799Z,96911.88
2022-10-02T12:59:44.262Z,96917.94
2022-10-02T13:03:01.556Z,96902.00
2022-10-02T13:05:47.833Z,96903.41
2022-10-02T13:08:26.370Z,96901.59
2022-10-02T13:11:08.457Z,96896.94
2022-10-02T13:13:55.635Z,96898.59
2022-10-02T13:16:31.908Z,96910.69
2022-10-02T13:19:16.175Z,96923.00
2022-10-02T13:21:55.039Z,96931.31
2022-10-02T13:24:41.240Z,96943.81
2022-10-02T13:27:24.931Z,96948.44
2022-10-02T13:30:12.236Z,96952.47
2022-10-02T13:33:08.692Z,96959.72
2022-10-02T13:35:52.211Z,96964.16
2022-10-02T13:38:39.847Z,96944.16
2022-10-02T13:41:19.020Z,96926.00
2022-10-02T13:44:23.848Z,96929.00
2022-10-02T13:47:15.431Z,96940.88
2022-10-02T13:50:25.741Z,96931.59
2022-10-02T13:53:28.084Z,96937.88
2022-10-02T13:56:13.366Z,96953.19
2022-10-02T13:59:03.749Z,96951.78
2022-10-02T14:02:02.701Z,96947.72
2022-10-02T14:05:08.935Z,96951.34
2022-10-02T14:08:10.304Z,96946.09
2022-10-02T14:10:54.356Z,96943.66
2022-10-02T14:13:43.575Z,96939.25
2022-10-02T14:16:31.611Z,96940.06
2022-10-02T14:19:28.477Z,96927.72
2022-10-02T14:22:12.424Z,96917.47
2022-10-02T14:25:05.007Z,96931.59
2022-10-02T14:28:06.748Z,96941.72
2022-10-02T14:30:55.540Z,96934.66
2022-10-02T14:33:37.804Z,96939.91
2022-10-02T14:36:18.580Z,96927.59
2022-10-02T14:39:02.669Z,96926.78
2022-10-02T14:41:49.129Z,96922.13
2022-10-02T14:44:43.340Z,96933.25
2022-10-02T14:47:29.969Z,96938.88
2022-10-02T14:50:14.859Z,96934.03
2022-10-02T14:53:19.385Z,96930.81
2022-10-02T15:03:26.685Z,96912.59
2022-10-02T15:06:10.406Z,96921.06
2022-10-02T15:08:46.847Z,96910.16
2022-10-02T15:11:26.013Z,96912.16
2022-10-02T15:13:59.018Z,96917.41
2022-10-02T15:16:51.198Z,96906.09
2022-10-02T15:19:25.416Z,96899.44
2022-10-02T15:21:59.110Z,96896.81
2022-10-02T15:24:33.801Z,96907.31
2022-10-02T15:27:16.171Z,96907.31
2022-10-02T15:29:59.670Z,96913.59
2022-10-02T15:32:49.022Z,96919.81
2022-10-02T15:35:28.485Z,96926.88
2022-10-02T15:38:14.892Z,96918.59
2022-10-02T15:40:54.680Z,96917.34
2022-10-02T15:43:39.161Z,96918.38
2022-10-02T15:46:14.775Z,96932.28
2022-10-02T15:48:59.755Z,96948.22
2022-10-02T15:51:46.020Z,96970.63
2022-10-02T15:54:24.803Z,96975.44
2022-10-02T15:57:22.999Z,96975.00
2022-10-02T16:00:03.156Z,96970.16
2022-10-02T16:02:57.175Z,96963.50
2022-10-02T16:05:44.937Z,96963.06
2022-10-02T16:08:47.729Z,96983.41
2022-10-02T16:11:29.252Z,96968.25
2022-10-02T16:14:07.468Z,96979.94
2022-10-02T16:17:06.769Z,96992.63
2022-10-02T16:19:51.515Z,96998.25
2022-10-02T16:22:36.616Z,97012.56
2022-10-02T16:25:25.499Z,97009.13
2022-10-02T16:27:57.762Z,97016.16
2022-10-02T16:30:33.548Z,97029.66
2022-10-02T16:33:11.451Z,97038.91
2022-10-02T16:36:08.210Z,97034.25
2022-10-02T16:38:48.279Z,97027.94
2022-10-02T16:41:37.002Z,97031.56
2022-10-02T16:44:24.185Z,97037.00
2022-10-02T16:46:55.899Z,97037.16
2022-10-02T16:49:32.104Z,97037.16
2022-10-02T16:52:07.433Z,97041.44
2022-10-02T16:54:46.172Z,97031.94
2022-10-02T16:57:25.594Z,97036.19
2022-10-02T17:00:00.949Z,97031.94
2022-10-02T17:02:43.456Z,97030.94
2022-10-02T17:05:24.693Z,97036.53
2022-10-02T17:07:59.916Z,97046.41
2022-10-02T17:10:39.006Z,97053.63
2022-10-02T17:13:19.492Z,97050.44
2022-10-02T17:15:53.178Z,97062.06
2022-10-02T17:18:32.633Z,97064.06
2022-10-02T17:21:11.591Z,97066.22
2022-10-02T17:23:48.421Z,97067.88
2022-10-02T17:26:29.038Z,97078.34
2022-10-02T17:29:02.721Z,97080.31
2022-10-02T17:31:37.561Z,97079.69
2022-10-02T17:34:23.037Z,97083.31
2022-10-02T17:37:02.305Z,97085.13
2022-10-02T17:39:56.534Z,97091.34
2022-10-02T17:42:41.091Z,97100.66
2022-10-02T17:45:22.090Z,97103.91
2022-10-02T17:48:14.333Z,97109.00
2022-10-02T17:51:11.083Z,97114.06
2022-10-02T17:54:29.495Z,97114.06
2022-10-02T17:57:18.412Z,97121.06
2022-10-02T18:00:12.272Z,97125.50
2022-10-02T18:03:18.106Z,97139.59
2022-10-02T18:06:00.783Z,97153.66
2022-10-02T18:09:04.969Z,97145.81
2022-10-02T18:11:56.490Z,97151.25
2022-10-02T18:14:53.493Z,97150.63
2022-10-02T18:17:32.903Z,97153.44
2022-10-02T18:20:11.974Z,97140.50
2022-10-02T18:22:55.803Z,97140.50
2022-10-02T18:25:38.963Z,97138.09
2022-10-02T18:28:31.682Z,97144.94
2022-10-02T18:31:13.066Z,97142.94
2022-10-02T18:33:58.236Z,97130.66
2022-10-02T18:36:42.600Z,97130.81
2022-10-02T18:39:20.442Z,97134.06
2022-10-02T18:41:57.043Z,97132.47
2022-10-02T18:44:46.778Z,97134.28
2022-10-02T18:47:31.105Z,97125.59
2022-10-02T18:50:10.803Z,97122.16
2022-10-02T18:52:59.035Z,97124.59
2022-10-02T18:56:05.432Z,97134.91
2022-10-02T18:58:44.065Z,97132.84
2022-10-02T19:01:18.980Z,97151.19
2022-10-02T19:04:02.064Z,97140.88
2022-10-02T19:06:33.918Z,97140.88
2022-10-02T19:09:17.833Z,97150.34
2022-10-02T19:11:48.242Z,97140.09
2022-10-02T19:14:30.005Z,97149.94
2022-10-02T19:16:59.612Z,97153.53
2022-10-02T19:19:28.798Z,97154.53
2022-10-02T19:22:01.046Z,97150.91
2022-10-02T19:24:32.525Z,97145.31
2022-10-02T19:27:06.865Z,97152.97
2022-10-02T19:29:39.200Z,97158.03
2022-10-02T19:32:14.651Z,97167.06
2022-10-02T19:34:44.025Z,97182.00
2022-10-02T19:37:17.178Z,97190.03
2022-10-02T19:39:52.081Z,97192.81
2022-10-02T19:42:24.970Z,97203.66
2022-10-02T19:44:57.088Z,97203.38
2022-10-02T19:47:30.216Z,97201.78
2022-10-02T19:50:00.905Z,97200.34
2022-10-02T19:52:31.046Z,97202.66
2022-10-02T19:55:04.446Z,97204.84
2022-10-02T19:57:40.689Z,97210.44
2022-10-02T20:00:16.251Z,97227.97
2022-10-02T20:02:46.659Z,97242.88
2022-10-02T20:05:21.801Z,97241.22
2022-10-02T20:07:51.909Z,97244.03
2022-10-02T20:10:26.039Z,97243.25
2022-10-02T20:12:59.011Z,97246.84
2022-10-02T20:15:52.056Z,97247.00
2022-10-02T20:18:21.419Z,97256.50
2022-10-02T20:20:50.373Z,97261.09
2022-10-02T20:23:25.636Z,97261.91
2022-10-02T20:25:58.424Z,97259.28
2022-10-02T20:28:32.160Z,97263.72
2022-10-02T20:31:05.462Z,97260.31
2022-10-02T20:33:38.783Z,97269.75
2022-10-02T20:36:14.027Z,97271.41
2022-10-02T20:38:47.628Z,97267.78
2022-10-02T20:41:20.390Z,97274.66
2022-10-02T20:43:50.848Z,97282.31
2022-10-02T20:46:46.311Z,97274.66
2022-10-02T20:49:44.696Z,97277.88
2022-10-02T20:52:36.208Z,97282.16
2022-10-02T20:55:15.806Z,97289.00
2022-10-02T20:58:10.618Z,97293.25
2022-10-02T21:00:57.802Z,97288.81
2022-10-02T21:03:59.714Z,97301.91
2022-10-02T21:07:07.450Z,97304.72
2022-10-02T21:10:12.115Z,97313.75
2022-10-02T21:13:18.282Z,97318.16
2022-10-02T21:16:35.043Z,97323.78
2022-10-02T21:19:26.601Z,97328.16
2022-10-02T21:22:22.113Z,97333.25
2022-10-02T21:25:32.074Z,97337.50
2022-10-02T21:28:32.459Z,97338.31
2022-10-02T21:31:13.896Z,97342.75
2022-10-02T21:33:53.802Z,97355.00
2022-10-02T21:36:29.709Z,97355.19
2022-10-02T21:39:32.765Z,97356.97
2022-10-02T21:42:42.113Z,97356.81
2022-10-02T21:45:51.338Z,97357.63
2022-10-02T21:49:14.763Z,97358.44
2022-10-02T21:52:29.145Z,97364.03
2022-10-02T21:55:43.392Z,97362.41
2022-10-02T21:58:40.710Z,97365.03
2022-10-02T22:02:07.359Z,97356.53
2022-10-02T22:05:11.165Z,97366.53
2022-10-02T22:07:52.279Z,97367.59
2022-10-02T22:10:30.091Z,97364.69
2022-10-02T22:13:15.992Z,97359.81
2022-10-02T22:15:53.134Z,97376.16
2022-10-02T22:18:31.250Z,97371.28
2022-10-02T22:21:21.602Z,97374.41
2022-10-02T22:24:25.189Z,97378.00
2022-10-02T22:27:08.752Z,97378.81
2022-10-02T22:29:47.944Z,97381.09
2022-10-02T22:33:00.747Z,97386.13
2022-10-02T22:35:46.758Z,97385.34
2022-10-02T22:38:21.040Z,97387.94
2022-10-02T22:40:57.167Z,97396.81
2022-10-02T22:43:34.427Z,97398.59
2022-10-02T22:46:10.205Z,97394.34
2022-10-02T22:48:46.574Z,97395.34
2022-10-02T22:51:26.076Z,97392.75
2022-10-02T22:54:06.151Z,97404.19
2022-10-02T22:56:42.221Z,97402.56
2022-10-02T22:59:24.530Z,97405.19
2022-10-02T23:02:09.716Z,97407.16
2022-10-02T23:04:46.346Z,97398.47
2022-10-02T23:07:18.104Z,97409.78
2022-10-02T23:09:53.776Z,97407.97
2022-10-02T23:12:29.701Z,97414.66
2022-10-02T23:15:11.696Z,97414.28
2022-10-02T23:17:55.134Z,97422.66
2022-10-02T23:20:32.255Z,97422.00
2022-10-02T23:23:10.217Z,97419.22
2022-10-02T23:25:52.747Z,97424.47
2022-10-02T23:28:35.739Z,97425.13
2022-10-02T23:31:23.212Z,97432.81
2022-10-02T23:34:04.063Z,97435.09
2022-10-02T23:36:48.820Z,97440.84
2022-10-02T23:39:25.778Z,97439.06
2022-10-02T23:42:00.312Z,97442.66
2022-10-02T23:44:39.701Z,97444.31
2022-10-02T23:47:21.276Z,97438.25
2022-10-02T23:49:54.488Z,97450.50
2022-10-02T23:52:42.127Z,97449.34
2022-10-02T23:55:40.171Z,97456.03
2022-10-02T23:58:38.624Z,97453.25
